sensor_id;sensor_type;location;lat;lon;timestamp;temperature;humidity
12588;DHT22;6359;51.450;7.346;2022-08-25T00:01:17;18.50;99.90
12588;DHT22;6359;51.450;7.346;2022-08-25T00:03:45;18.50;99.90
12588;DHT22;6359;51.450;7.346;2022-08-25T00:06:13;18.50;99.90
12588;DHT22;6359;51.450;7.346;2022-08-25T00:08:41;18.50;99.90
12588;DHT22;6359;51.450;7.346;2022-08-25T00:11:12;18.50;99.90
12588;DHT22;6359;51.450;7.346;2022-08-25T00:13:42;18.40;99.90
12588;DHT22;6359;51.450;7.346;2022-08-25T00:16:12;18.40;99.90
12588;DHT22;6359;51.450;7.346;2022-08-25T00:18:40;18.40;99.90
12588;DHT22;6359;51.450;7.346;2022-08-25T00:21:10;18.40;99.90
12588;DHT22;6359;51.450;7.346;2022-08-25T00:23:37;18.30;99.90
12588;DHT22;6359;51.450;7.346;2022-08-25T00:26:05;18.20;99.90
12588;DHT22;6359;51.450;7.346;2022-08-25T00:28:32;18.20;99.90
12588;DHT22;6359;51.450;7.346;2022-08-25T00:31:00;18.10;99.90
12588;DHT22;6359;51.450;7.346;2022-08-25T00:33:28;18.10;99.90
12588;DHT22;6359;51.450;7.346;2022-08-25T00:35:57;18.10;99.90
12588;DHT22;6359;51.450;7.346;2022-08-25T00:38:24;18.00;99.90
12588;DHT22;6359;51.450;7.346;2022-08-25T00:40:52;18.00;99.90
12588;DHT22;6359;51.450;7.346;2022-08-25T00:43:34;18.00;99.90
12588;DHT22;6359;51.450;7.346;2022-08-25T00:46:03;17.90;99.90
12588;DHT22;6359;51.450;7.346;2022-08-25T00:48:31;17.90;99.90
12588;DHT22;6359;51.450;7.346;2022-08-25T00:50:59;17.80;99.90
12588;DHT22;6359;51.450;7.346;2022-08-25T00:53:29;17.80;99.90
12588;DHT22;6359;51.450;7.346;2022-08-25T00:55:56;17.80;99.90
12588;DHT22;6359;51.450;7.346;2022-08-25T00:58:26;17.80;99.90
12588;DHT22;6359;51.450;7.346;2022-08-25T01:00:55;17.80;99.90
12588;DHT22;6359;51.450;7.346;2022-08-25T01:03:23;17.70;99.90
12588;DHT22;6359;51.450;7.346;2022-08-25T01:05:54;17.70;99.90
12588;DHT22;6359;51.450;7.346;2022-08-25T01:08:24;17.80;99.90
12588;DHT22;6359;51.450;7.346;2022-08-25T01:10:53;17.80;99.90
12588;DHT22;6359;51.450;7.346;2022-08-25T01:13:24;17.80;99.90
12588;DHT22;6359;51.450;7.346;2022-08-25T01:15:54;17.70;99.90
12588;DHT22;6359;51.450;7.346;2022-08-25T01:18:24;17.60;99.90
12588;DHT22;6359;51.450;7.346;2022-08-25T01:20:53;17.60;99.90
12588;DHT22;6359;51.450;7.346;2022-08-25T01:23:21;17.60;99.90
12588;DHT22;6359;51.450;7.346;2022-08-25T01:25:55;17.50;99.90
12588;DHT22;6359;51.450;7.346;2022-08-25T01:28:24;17.50;99.90
12588;DHT22;6359;51.450;7.346;2022-08-25T01:30:51;17.40;99.90
12588;DHT22;6359;51.450;7.346;2022-08-25T01:33:18;17.40;99.90
12588;DHT22;6359;51.450;7.346;2022-08-25T01:35:46;17.40;99.90
12588;DHT22;6359;51.450;7.346;2022-08-25T01:38:14;17.40;99.90
12588;DHT22;6359;51.450;7.346;2022-08-25T01:40:42;17.40;99.90
12588;DHT22;6359;51.450;7.346;2022-08-25T01:43:16;17.40;99.90
12588;DHT22;6359;51.450;7.346;2022-08-25T01:45:47;17.30;99.90
12588;DHT22;6359;51.450;7.346;2022-08-25T01:48:15;17.30;99.90
12588;DHT22;6359;51.450;7.346;2022-08-25T01:50:42;17.30;99.90
12588;DHT22;6359;51.450;7.346;2022-08-25T01:53:17;17.20;99.90
12588;DHT22;6359;51.450;7.346;2022-08-25T01:55:44;17.10;99.90
12588;DHT22;6359;51.450;7.346;2022-08-25T01:58:19;17.00;99.90
12588;DHT22;6359;51.450;7.346;2022-08-25T02:00:48;17.10;99.90
12588;DHT22;6359;51.450;7.346;2022-08-25T02:03:15;17.00;99.90
12588;DHT22;6359;51.450;7.346;2022-08-25T02:05:42;17.00;99.90
12588;DHT22;6359;51.450;7.346;2022-08-25T02:08:09;17.00;99.90
12588;DHT22;6359;51.450;7.346;2022-08-25T02:10:38;17.00;99.90
12588;DHT22;6359;51.450;7.346;2022-08-25T02:13:06;17.00;99.90
12588;DHT22;6359;51.450;7.346;2022-08-25T02:15:38;17.00;99.90
12588;DHT22;6359;51.450;7.346;2022-08-25T02:18:05;17.00;99.90
12588;DHT22;6359;51.450;7.346;2022-08-25T02:20:32;17.00;99.90
12588;DHT22;6359;51.450;7.346;2022-08-25T02:22:59;17.00;99.90
12588;DHT22;6359;51.450;7.346;2022-08-25T02:25:26;17.00;99.90
12588;DHT22;6359;51.450;7.346;2022-08-25T02:27:54;16.90;99.90
12588;DHT22;6359;51.450;7.346;2022-08-25T02:30:21;16.80;99.90
12588;DHT22;6359;51.450;7.346;2022-08-25T02:32:48;16.80;99.90
12588;DHT22;6359;51.450;7.346;2022-08-25T02:35:16;16.80;99.90
12588;DHT22;6359;51.450;7.346;2022-08-25T02:37:42;16.80;99.90
12588;DHT22;6359;51.450;7.346;2022-08-25T02:40:10;16.80;99.90
12588;DHT22;6359;51.450;7.346;2022-08-25T02:42:37;16.90;99.90
12588;DHT22;6359;51.450;7.346;2022-08-25T02:45:06;16.90;99.90
12588;DHT22;6359;51.450;7.346;2022-08-25T02:47:33;16.90;99.90
12588;DHT22;6359;51.450;7.346;2022-08-25T02:50:02;16.80;99.90
12588;DHT22;6359;51.450;7.346;2022-08-25T02:52:29;16.80;99.90
12588;DHT22;6359;51.450;7.346;2022-08-25T02:54:56;16.80;99.90
12588;DHT22;6359;51.450;7.346;2022-08-25T02:57:23;16.80;99.90
12588;DHT22;6359;51.450;7.346;2022-08-25T02:59:50;16.70;99.90
12588;DHT22;6359;51.450;7.346;2022-08-25T03:02:18;16.70;99.90
12588;DHT22;6359;51.450;7.346;2022-08-25T03:04:45;16.70;99.90
12588;DHT22;6359;51.450;7.346;2022-08-25T03:07:12;16.70;99.90
12588;DHT22;6359;51.450;7.346;2022-08-25T03:09:39;16.60;99.90
12588;DHT22;6359;51.450;7.346;2022-08-25T03:12:06;16.70;99.90
12588;DHT22;6359;51.450;7.346;2022-08-25T03:14:34;16.60;99.90
12588;DHT22;6359;51.450;7.346;2022-08-25T03:17:00;16.60;99.90
12588;DHT22;6359;51.450;7.346;2022-08-25T03:19:29;16.50;99.90
12588;DHT22;6359;51.450;7.346;2022-08-25T03:21:56;16.50;99.90
12588;DHT22;6359;51.450;7.346;2022-08-25T03:24:24;16.40;99.90
12588;DHT22;6359;51.450;7.346;2022-08-25T03:26:52;16.40;99.90
12588;DHT22;6359;51.450;7.346;2022-08-25T03:29:18;16.30;99.90
12588;DHT22;6359;51.450;7.346;2022-08-25T03:31:45;16.30;99.90
12588;DHT22;6359;51.450;7.346;2022-08-25T03:34:13;16.20;99.90
12588;DHT22;6359;51.450;7.346;2022-08-25T03:36:43;16.20;99.90
12588;DHT22;6359;51.450;7.346;2022-08-25T03:39:11;16.10;99.90
12588;DHT22;6359;51.450;7.346;2022-08-25T03:41:38;16.00;99.90
12588;DHT22;6359;51.450;7.346;2022-08-25T03:44:07;16.10;99.90
12588;DHT22;6359;51.450;7.346;2022-08-25T03:46:37;16.10;99.90
12588;DHT22;6359;51.450;7.346;2022-08-25T03:49:07;16.10;99.90
12588;DHT22;6359;51.450;7.346;2022-08-25T03:51:35;16.10;99.90
12588;DHT22;6359;51.450;7.346;2022-08-25T03:54:04;16.20;99.90
12588;DHT22;6359;51.450;7.346;2022-08-25T03:56:31;16.20;99.90
12588;DHT22;6359;51.450;7.346;2022-08-25T03:58:58;16.20;99.90
12588;DHT22;6359;51.450;7.346;2022-08-25T04:01:25;16.10;99.90
12588;DHT22;6359;51.450;7.346;2022-08-25T04:03:52;16.10;99.90
12588;DHT22;6359;51.450;7.346;2022-08-25T04:06:20;16.00;99.90
12588;DHT22;6359;51.450;7.346;2022-08-25T04:08:47;15.90;99.90
12588;DHT22;6359;51.450;7.346;2022-08-25T04:11:21;15.90;99.90
12588;DHT22;6359;51.450;7.346;2022-08-25T04:13:48;15.80;99.90
12588;DHT22;6359;51.450;7.346;2022-08-25T04:16:17;15.70;99.90
12588;DHT22;6359;51.450;7.346;2022-08-25T04:18:45;15.70;99.90
12588;DHT22;6359;51.450;7.346;2022-08-25T04:21:13;15.60;99.90
12588;DHT22;6359;51.450;7.346;2022-08-25T04:23:42;15.60;99.90
12588;DHT22;6359;51.450;7.346;2022-08-25T04:26:10;15.60;99.90
12588;DHT22;6359;51.450;7.346;2022-08-25T04:28:38;15.70;99.90
12588;DHT22;6359;51.450;7.346;2022-08-25T04:31:06;15.70;99.90
12588;DHT22;6359;51.450;7.346;2022-08-25T04:33:33;15.60;99.90
12588;DHT22;6359;51.450;7.346;2022-08-25T04:36:00;15.60;99.90
12588;DHT22;6359;51.450;7.346;2022-08-25T04:38:27;15.70;99.90
12588;DHT22;6359;51.450;7.346;2022-08-25T04:40:56;15.70;99.90
12588;DHT22;6359;51.450;7.346;2022-08-25T04:43:23;15.70;99.90
12588;DHT22;6359;51.450;7.346;2022-08-25T04:45:52;15.70;99.90
12588;DHT22;6359;51.450;7.346;2022-08-25T04:48:20;15.70;99.90
12588;DHT22;6359;51.450;7.346;2022-08-25T04:50:47;15.70;99.90
12588;DHT22;6359;51.450;7.346;2022-08-25T04:53:15;15.70;99.90
12588;DHT22;6359;51.450;7.346;2022-08-25T04:55:43;15.70;99.90
12588;DHT22;6359;51.450;7.346;2022-08-25T04:58:11;15.70;99.90
12588;DHT22;6359;51.450;7.346;2022-08-25T05:00:39;15.70;99.90
12588;DHT22;6359;51.450;7.346;2022-08-25T05:03:08;15.80;99.90
12588;DHT22;6359;51.450;7.346;2022-08-25T05:05:36;15.80;99.90
12588;DHT22;6359;51.450;7.346;2022-08-25T05:08:04;15.80;99.90
12588;DHT22;6359;51.450;7.346;2022-08-25T05:10:31;15.90;99.90
12588;DHT22;6359;51.450;7.346;2022-08-25T05:12:58;16.00;99.90
12588;DHT22;6359;51.450;7.346;2022-08-25T05:15:26;16.10;99.90
12588;DHT22;6359;51.450;7.346;2022-08-25T05:18:11;16.20;99.90
12588;DHT22;6359;51.450;7.346;2022-08-25T05:20:38;16.30;99.90
12588;DHT22;6359;51.450;7.346;2022-08-25T05:23:05;16.40;99.90
12588;DHT22;6359;51.450;7.346;2022-08-25T05:25:32;16.60;99.90
12588;DHT22;6359;51.450;7.346;2022-08-25T05:27:59;16.60;99.90
12588;DHT22;6359;51.450;7.346;2022-08-25T05:30:26;16.70;99.90
12588;DHT22;6359;51.450;7.346;2022-08-25T05:32:53;16.80;99.90
12588;DHT22;6359;51.450;7.346;2022-08-25T05:35:21;16.90;99.90
12588;DHT22;6359;51.450;7.346;2022-08-25T05:37:48;17.00;99.90
12588;DHT22;6359;51.450;7.346;2022-08-25T05:40:15;17.10;99.90
12588;DHT22;6359;51.450;7.346;2022-08-25T05:42:42;17.20;99.90
12588;DHT22;6359;51.450;7.346;2022-08-25T05:45:10;17.30;99.90
12588;DHT22;6359;51.450;7.346;2022-08-25T05:47:38;17.50;99.90
12588;DHT22;6359;51.450;7.346;2022-08-25T05:50:06;17.60;99.90
12588;DHT22;6359;51.450;7.346;2022-08-25T05:52:35;17.70;99.90
12588;DHT22;6359;51.450;7.346;2022-08-25T05:55:02;17.80;99.90
12588;DHT22;6359;51.450;7.346;2022-08-25T05:57:29;18.00;99.90
12588;DHT22;6359;51.450;7.346;2022-08-25T05:59:56;18.20;99.90
12588;DHT22;6359;51.450;7.346;2022-08-25T06:02:23;18.40;99.90
12588;DHT22;6359;51.450;7.346;2022-08-25T06:05:09;18.50;99.90
12588;DHT22;6359;51.450;7.346;2022-08-25T06:07:38;18.80;99.90
12588;DHT22;6359;51.450;7.346;2022-08-25T06:10:07;19.20;99.90
12588;DHT22;6359;51.450;7.346;2022-08-25T06:12:36;19.30;99.90
12588;DHT22;6359;51.450;7.346;2022-08-25T06:15:04;19.70;99.90
12588;DHT22;6359;51.450;7.346;2022-08-25T06:17:31;20.00;99.90
12588;DHT22;6359;51.450;7.346;2022-08-25T06:19:59;20.30;99.90
12588;DHT22;6359;51.450;7.346;2022-08-25T06:22:27;20.60;99.90
12588;DHT22;6359;51.450;7.346;2022-08-25T06:24:56;21.70;99.90
12588;DHT22;6359;51.450;7.346;2022-08-25T06:27:23;23.80;99.90
12588;DHT22;6359;51.450;7.346;2022-08-25T06:29:50;26.00;99.90
12588;DHT22;6359;51.450;7.346;2022-08-25T06:32:16;28.10;99.90
12588;DHT22;6359;51.450;7.346;2022-08-25T06:34:43;29.80;99.90
12588;DHT22;6359;51.450;7.346;2022-08-25T06:37:10;31.10;99.90
12588;DHT22;6359;51.450;7.346;2022-08-25T06:39:37;32.20;99.90
12588;DHT22;6359;51.450;7.346;2022-08-25T06:42:06;32.90;98.50
12588;DHT22;6359;51.450;7.346;2022-08-25T06:44:33;33.20;96.10
12588;DHT22;6359;51.450;7.346;2022-08-25T06:47:00;33.40;94.70
12588;DHT22;6359;51.450;7.346;2022-08-25T06:49:27;33.70;92.90
12588;DHT22;6359;51.450;7.346;2022-08-25T06:51:54;33.30;93.00
12588;DHT22;6359;51.450;7.346;2022-08-25T06:54:20;33.90;92.10
12588;DHT22;6359;51.450;7.346;2022-08-25T06:56:47;33.80;91.10
12588;DHT22;6359;51.450;7.346;2022-08-25T06:59:17;34.00;91.10
12588;DHT22;6359;51.450;7.346;2022-08-25T07:01:44;34.20;90.00
12588;DHT22;6359;51.450;7.346;2022-08-25T07:04:11;34.50;90.00
12588;DHT22;6359;51.450;7.346;2022-08-25T07:06:38;34.40;90.30
12588;DHT22;6359;51.450;7.346;2022-08-25T07:09:06;35.20;87.90
12588;DHT22;6359;51.450;7.346;2022-08-25T07:11:34;35.60;85.80
12588;DHT22;6359;51.450;7.346;2022-08-25T07:14:02;36.40;83.60
12588;DHT22;6359;51.450;7.346;2022-08-25T07:16:31;36.50;81.20
12588;DHT22;6359;51.450;7.346;2022-08-25T07:18:58;36.20;80.10
12588;DHT22;6359;51.450;7.346;2022-08-25T07:21:27;37.20;79.70
12588;DHT22;6359;51.450;7.346;2022-08-25T07:23:54;37.40;77.80
12588;DHT22;6359;51.450;7.346;2022-08-25T07:26:25;37.50;77.10
12588;DHT22;6359;51.450;7.346;2022-08-25T07:28:53;37.40;75.70
12588;DHT22;6359;51.450;7.346;2022-08-25T07:31:20;39.00;72.10
12588;DHT22;6359;51.450;7.346;2022-08-25T07:33:49;39.00;73.20
12588;DHT22;6359;51.450;7.346;2022-08-25T07:36:33;38.00;72.30
12588;DHT22;6359;51.450;7.346;2022-08-25T07:39:01;39.60;69.10
12588;DHT22;6359;51.450;7.346;2022-08-25T07:41:30;40.10;67.70
12588;DHT22;6359;51.450;7.346;2022-08-25T07:43:59;39.50;69.30
12588;DHT22;6359;51.450;7.346;2022-08-25T07:46:26;39.10;67.50
12588;DHT22;6359;51.450;7.346;2022-08-25T07:48:54;39.10;67.30
12588;DHT22;6359;51.450;7.346;2022-08-25T07:51:21;39.90;65.70
12588;DHT22;6359;51.450;7.346;2022-08-25T07:53:48;39.50;66.20
12588;DHT22;6359;51.450;7.346;2022-08-25T07:56:16;39.00;66.50
12588;DHT22;6359;51.450;7.346;2022-08-25T07:58:44;38.70;67.10
12588;DHT22;6359;51.450;7.346;2022-08-25T08:01:13;39.20;65.90
12588;DHT22;6359;51.450;7.346;2022-08-25T08:03:40;39.30;64.20
12588;DHT22;6359;51.450;7.346;2022-08-25T08:06:11;39.60;65.10
12588;DHT22;6359;51.450;7.346;2022-08-25T08:08:40;38.90;64.90
12588;DHT22;6359;51.450;7.346;2022-08-25T08:11:14;38.90;65.30
12588;DHT22;6359;51.450;7.346;2022-08-25T08:13:41;38.50;66.00
12588;DHT22;6359;51.450;7.346;2022-08-25T08:16:08;39.40;65.80
12588;DHT22;6359;51.450;7.346;2022-08-25T08:18:36;39.00;64.20
12588;DHT22;6359;51.450;7.346;2022-08-25T08:21:03;39.50;64.30
12588;DHT22;6359;51.450;7.346;2022-08-25T08:23:31;39.50;63.20
12588;DHT22;6359;51.450;7.346;2022-08-25T08:25:58;39.00;64.00
12588;DHT22;6359;51.450;7.346;2022-08-25T08:28:25;39.60;63.40
12588;DHT22;6359;51.450;7.346;2022-08-25T08:30:52;40.30;61.10
12588;DHT22;6359;51.450;7.346;2022-08-25T08:33:20;39.70;64.40
12588;DHT22;6359;51.450;7.346;2022-08-25T08:35:54;40.40;62.00
12588;DHT22;6359;51.450;7.346;2022-08-25T08:38:21;39.90;61.60
12588;DHT22;6359;51.450;7.346;2022-08-25T08:40:57;39.00;61.30
12588;DHT22;6359;51.450;7.346;2022-08-25T08:43:41;39.30;61.40
12588;DHT22;6359;51.450;7.346;2022-08-25T08:46:09;40.20;61.30
12588;DHT22;6359;51.450;7.346;2022-08-25T08:48:48;40.30;59.90
12588;DHT22;6359;51.450;7.346;2022-08-25T08:51:20;40.00;60.30
12588;DHT22;6359;51.450;7.346;2022-08-25T08:53:54;40.90;58.50
12588;DHT22;6359;51.450;7.346;2022-08-25T08:56:25;40.90;58.20
12588;DHT22;6359;51.450;7.346;2022-08-25T08:58:55;40.60;58.40
12588;DHT22;6359;51.450;7.346;2022-08-25T09:01:26;40.90;57.90
12588;DHT22;6359;51.450;7.346;2022-08-25T09:03:57;40.50;59.80
12588;DHT22;6359;51.450;7.346;2022-08-25T09:06:30;40.20;59.50
12588;DHT22;6359;51.450;7.346;2022-08-25T09:09:02;40.90;59.20
12588;DHT22;6359;51.450;7.346;2022-08-25T09:11:45;41.00;58.30
12588;DHT22;6359;51.450;7.346;2022-08-25T09:14:33;40.70;57.90
12588;DHT22;6359;51.450;7.346;2022-08-25T09:17:05;40.20;58.20
12588;DHT22;6359;51.450;7.346;2022-08-25T09:22:49;41.40;72.50
12588;DHT22;6359;51.450;7.346;2022-08-25T09:25:21;41.10;56.60
12588;DHT22;6359;51.450;7.346;2022-08-25T09:27:55;41.30;57.00
12588;DHT22;6359;51.450;7.346;2022-08-25T09:30:27;41.00;56.40
12588;DHT22;6359;51.450;7.346;2022-08-25T09:32:58;41.60;56.30
12588;DHT22;6359;51.450;7.346;2022-08-25T09:35:30;41.60;55.70
12588;DHT22;6359;51.450;7.346;2022-08-25T09:37:59;41.50;55.70
12588;DHT22;6359;51.450;7.346;2022-08-25T09:40:27;41.10;54.30
12588;DHT22;6359;51.450;7.346;2022-08-25T09:42:58;40.80;53.50
12588;DHT22;6359;51.450;7.346;2022-08-25T09:45:36;39.80;53.50
12588;DHT22;6359;51.450;7.346;2022-08-25T09:48:23;37.70;55.80
12588;DHT22;6359;51.450;7.346;2022-08-25T09:50:53;38.50;54.70
12588;DHT22;6359;51.450;7.346;2022-08-25T09:53:23;39.00;55.70
12588;DHT22;6359;51.450;7.346;2022-08-25T09:55:55;38.50;54.90
12588;DHT22;6359;51.450;7.346;2022-08-25T09:58:24;39.20;53.90
12588;DHT22;6359;51.450;7.346;2022-08-25T10:01:10;39.50;53.70
12588;DHT22;6359;51.450;7.346;2022-08-25T10:03:53;39.50;52.70
12588;DHT22;6359;51.450;7.346;2022-08-25T10:06:21;38.80;53.20
12588;DHT22;6359;51.450;7.346;2022-08-25T10:08:55;39.80;53.60
12588;DHT22;6359;51.450;7.346;2022-08-25T10:11:32;40.70;50.60
12588;DHT22;6359;51.450;7.346;2022-08-25T10:14:06;39.70;51.70
12588;DHT22;6359;51.450;7.346;2022-08-25T10:16:33;40.50;51.70
12588;DHT22;6359;51.450;7.346;2022-08-25T10:19:03;40.00;53.40
12588;DHT22;6359;51.450;7.346;2022-08-25T10:21:31;39.60;52.30
12588;DHT22;6359;51.450;7.346;2022-08-25T10:23:59;39.10;53.90
12588;DHT22;6359;51.450;7.346;2022-08-25T10:26:40;39.50;53.00
12588;DHT22;6359;51.450;7.346;2022-08-25T10:29:20;40.00;51.90
12588;DHT22;6359;51.450;7.346;2022-08-25T10:31:55;40.00;50.60
12588;DHT22;6359;51.450;7.346;2022-08-25T10:34:34;40.10;50.20
12588;DHT22;6359;51.450;7.346;2022-08-25T10:37:11;39.60;51.40
12588;DHT22;6359;51.450;7.346;2022-08-25T10:39:55;38.40;52.10
12588;DHT22;6359;51.450;7.346;2022-08-25T10:42:31;38.20;50.70
12588;DHT22;6359;51.450;7.346;2022-08-25T10:45:20;36.80;53.30
12588;DHT22;6359;51.450;7.346;2022-08-25T10:48:19;36.40;53.40
12588;DHT22;6359;51.450;7.346;2022-08-25T10:50:55;37.30;52.00
12588;DHT22;6359;51.450;7.346;2022-08-25T10:53:28;36.30;51.80
12588;DHT22;6359;51.450;7.346;2022-08-25T10:56:03;36.30;51.30
12588;DHT22;6359;51.450;7.346;2022-08-25T10:58:50;36.30;52.80
12588;DHT22;6359;51.450;7.346;2022-08-25T11:01:29;36.40;51.10
12588;DHT22;6359;51.450;7.346;2022-08-25T11:04:02;36.30;50.50
12588;DHT22;6359;51.450;7.346;2022-08-25T11:06:36;37.00;51.10
12588;DHT22;6359;51.450;7.346;2022-08-25T11:09:07;36.90;51.20
12588;DHT22;6359;51.450;7.346;2022-08-25T11:11:37;36.90;51.80
12588;DHT22;6359;51.450;7.346;2022-08-25T11:14:09;36.30;51.80
12588;DHT22;6359;51.450;7.346;2022-08-25T11:16:44;36.90;51.90
12588;DHT22;6359;51.450;7.346;2022-08-25T11:19:22;37.00;52.80
12588;DHT22;6359;51.450;7.346;2022-08-25T11:21:54;36.90;52.50
12588;DHT22;6359;51.450;7.346;2022-08-25T11:24:43;35.40;52.80
12588;DHT22;6359;51.450;7.346;2022-08-25T11:27:17;34.00;55.10
12588;DHT22;6359;51.450;7.346;2022-08-25T11:29:55;34.60;55.30
12588;DHT22;6359;51.450;7.346;2022-08-25T11:32:25;34.70;56.30
12588;DHT22;6359;51.450;7.346;2022-08-25T11:34:52;35.00;54.70
12588;DHT22;6359;51.450;7.346;2022-08-25T11:37:23;35.00;55.50
12588;DHT22;6359;51.450;7.346;2022-08-25T11:40:06;34.50;55.00
12588;DHT22;6359;51.450;7.346;2022-08-25T11:42:53;34.70;55.30
12588;DHT22;6359;51.450;7.346;2022-08-25T11:45:41;34.80;55.30
12588;DHT22;6359;51.450;7.346;2022-08-25T11:48:21;34.90;56.30
12588;DHT22;6359;51.450;7.346;2022-08-25T11:50:59;34.70;56.00
12588;DHT22;6359;51.450;7.346;2022-08-25T11:53:29;34.70;57.10
12588;DHT22;6359;51.450;7.346;2022-08-25T11:55:58;34.80;57.50
12588;DHT22;6359;51.450;7.346;2022-08-25T11:58:41;34.80;56.70
12588;DHT22;6359;51.450;7.346;2022-08-25T12:01:13;34.90;54.20
12588;DHT22;6359;51.450;7.346;2022-08-25T12:04:14;33.80;54.70
12588;DHT22;6359;51.450;7.346;2022-08-25T12:07:17;34.00;56.30
12588;DHT22;6359;51.450;7.346;2022-08-25T12:10:10;34.10;55.10
12588;DHT22;6359;51.450;7.346;2022-08-25T12:12:55;34.60;54.40
12588;DHT22;6359;51.450;7.346;2022-08-25T12:15:25;34.40;54.90
12588;DHT22;6359;51.450;7.346;2022-08-25T12:18:09;34.50;55.10
12588;DHT22;6359;51.450;7.346;2022-08-25T12:21:10;34.60;55.50
12588;DHT22;6359;51.450;7.346;2022-08-25T12:23:40;34.60;54.30
12588;DHT22;6359;51.450;7.346;2022-08-25T12:26:15;34.50;55.80
12588;DHT22;6359;51.450;7.346;2022-08-25T12:28:55;34.60;56.40
12588;DHT22;6359;51.450;7.346;2022-08-25T12:31:38;34.70;54.50
12588;DHT22;6359;51.450;7.346;2022-08-25T12:34:24;34.10;53.80
12588;DHT22;6359;51.450;7.346;2022-08-25T12:37:02;33.70;54.50
12588;DHT22;6359;51.450;7.346;2022-08-25T12:39:32;33.30;54.00
12588;DHT22;6359;51.450;7.346;2022-08-25T12:42:03;33.40;54.20
12588;DHT22;6359;51.450;7.346;2022-08-25T12:44:36;33.70;55.80
12588;DHT22;6359;51.450;7.346;2022-08-25T12:47:10;33.70;54.60
12588;DHT22;6359;51.450;7.346;2022-08-25T12:49:38;33.90;55.10
12588;DHT22;6359;51.450;7.346;2022-08-25T12:52:11;34.30;56.30
12588;DHT22;6359;51.450;7.346;2022-08-25T12:54:45;34.50;53.80
12588;DHT22;6359;51.450;7.346;2022-08-25T12:57:38;34.30;54.80
12588;DHT22;6359;51.450;7.346;2022-08-25T13:00:14;33.80;56.50
12588;DHT22;6359;51.450;7.346;2022-08-25T13:03:11;33.90;57.30
12588;DHT22;6359;51.450;7.346;2022-08-25T13:09:00;32.50;58.10
12588;DHT22;6359;51.450;7.346;2022-08-25T13:11:38;33.00;58.00
12588;DHT22;6359;51.450;7.346;2022-08-25T13:14:15;33.20;57.80
12588;DHT22;6359;51.450;7.346;2022-08-25T13:16:52;33.30;58.30
12588;DHT22;6359;51.450;7.346;2022-08-25T13:19:19;33.40;59.20
12588;DHT22;6359;51.450;7.346;2022-08-25T13:21:47;33.40;57.40
12588;DHT22;6359;51.450;7.346;2022-08-25T13:24:18;33.40;57.50
12588;DHT22;6359;51.450;7.346;2022-08-25T13:26:49;33.60;56.80
12588;DHT22;6359;51.450;7.346;2022-08-25T13:29:19;33.70;59.10
12588;DHT22;6359;51.450;7.346;2022-08-25T13:31:52;33.80;56.60
12588;DHT22;6359;51.450;7.346;2022-08-25T13:34:21;33.50;56.90
12588;DHT22;6359;51.450;7.346;2022-08-25T13:36:49;33.40;57.00
12588;DHT22;6359;51.450;7.346;2022-08-25T13:39:41;33.20;56.00
12588;DHT22;6359;51.450;7.346;2022-08-25T13:42:12;32.80;57.00
12588;DHT22;6359;51.450;7.346;2022-08-25T13:44:40;32.20;56.90
12588;DHT22;6359;51.450;7.346;2022-08-25T13:47:10;32.00;58.30
12588;DHT22;6359;51.450;7.346;2022-08-25T13:49:39;32.20;58.10
12588;DHT22;6359;51.450;7.346;2022-08-25T13:52:06;32.60;58.70
12588;DHT22;6359;51.450;7.346;2022-08-25T13:54:38;32.90;58.20
12588;DHT22;6359;51.450;7.346;2022-08-25T13:57:16;33.20;57.40
12588;DHT22;6359;51.450;7.346;2022-08-25T13:59:48;33.40;56.10
12588;DHT22;6359;51.450;7.346;2022-08-25T14:02:41;33.20;56.30
12588;DHT22;6359;51.450;7.346;2022-08-25T14:05:10;33.30;57.30
12588;DHT22;6359;51.450;7.346;2022-08-25T14:07:38;33.40;57.70
12588;DHT22;6359;51.450;7.346;2022-08-25T14:10:07;33.00;57.10
12588;DHT22;6359;51.450;7.346;2022-08-25T14:12:39;32.80;56.80
12588;DHT22;6359;51.450;7.346;2022-08-25T14:15:11;33.00;56.90
12588;DHT22;6359;51.450;7.346;2022-08-25T14:17:40;33.20;57.50
12588;DHT22;6359;51.450;7.346;2022-08-25T14:20:16;33.20;58.10
12588;DHT22;6359;51.450;7.346;2022-08-25T14:22:45;33.20;56.80
12588;DHT22;6359;51.450;7.346;2022-08-25T14:25:12;33.30;56.70
12588;DHT22;6359;51.450;7.346;2022-08-25T14:27:42;33.30;57.00
12588;DHT22;6359;51.450;7.346;2022-08-25T14:30:11;33.30;56.00
12588;DHT22;6359;51.450;7.346;2022-08-25T14:32:38;33.40;56.00
12588;DHT22;6359;51.450;7.346;2022-08-25T14:35:06;33.50;56.00
12588;DHT22;6359;51.450;7.346;2022-08-25T14:37:34;33.50;56.20
12588;DHT22;6359;51.450;7.346;2022-08-25T14:40:01;33.40;55.10
12588;DHT22;6359;51.450;7.346;2022-08-25T14:42:28;33.40;55.10
12588;DHT22;6359;51.450;7.346;2022-08-25T14:44:56;33.40;56.60
12588;DHT22;6359;51.450;7.346;2022-08-25T14:47:23;33.30;57.40
12588;DHT22;6359;51.450;7.346;2022-08-25T14:49:50;33.20;56.70
12588;DHT22;6359;51.450;7.346;2022-08-25T14:52:20;32.80;56.20
12588;DHT22;6359;51.450;7.346;2022-08-25T14:54:51;32.90;55.50
12588;DHT22;6359;51.450;7.346;2022-08-25T14:57:18;33.00;56.70
12588;DHT22;6359;51.450;7.346;2022-08-25T14:59:45;33.00;55.20
12588;DHT22;6359;51.450;7.346;2022-08-25T15:02:15;33.10;55.50
12588;DHT22;6359;51.450;7.346;2022-08-25T15:04:45;33.00;56.70
12588;DHT22;6359;51.450;7.346;2022-08-25T15:07:15;33.00;58.00
12588;DHT22;6359;51.450;7.346;2022-08-25T15:09:55;33.00;58.20
12588;DHT22;6359;51.450;7.346;2022-08-25T15:12:22;32.90;58.70
12588;DHT22;6359;51.450;7.346;2022-08-25T15:14:49;32.90;59.90
12588;DHT22;6359;51.450;7.346;2022-08-25T15:17:18;32.70;59.10
12588;DHT22;6359;51.450;7.346;2022-08-25T15:19:44;32.50;59.40
12588;DHT22;6359;51.450;7.346;2022-08-25T15:22:11;32.50;61.40
12588;DHT22;6359;51.450;7.346;2022-08-25T15:24:38;32.40;62.00
12588;DHT22;6359;51.450;7.346;2022-08-25T15:27:06;32.30;62.10
12588;DHT22;6359;51.450;7.346;2022-08-25T15:29:34;32.50;63.00
12588;DHT22;6359;51.450;7.346;2022-08-25T15:32:03;32.50;62.70
12588;DHT22;6359;51.450;7.346;2022-08-25T15:34:33;32.40;62.00
12588;DHT22;6359;51.450;7.346;2022-08-25T15:37:05;32.40;62.80
12588;DHT22;6359;51.450;7.346;2022-08-25T15:39:33;32.40;63.20
12588;DHT22;6359;51.450;7.346;2022-08-25T15:42:00;32.20;63.70
12588;DHT22;6359;51.450;7.346;2022-08-25T15:44:27;32.20;63.90
12588;DHT22;6359;51.450;7.346;2022-08-25T15:46:56;32.20;64.00
12588;DHT22;6359;51.450;7.346;2022-08-25T15:49:23;32.20;64.10
12588;DHT22;6359;51.450;7.346;2022-08-25T15:51:51;32.00;63.70
12588;DHT22;6359;51.450;7.346;2022-08-25T15:54:18;32.00;64.10
12588;DHT22;6359;51.450;7.346;2022-08-25T15:56:46;32.00;64.20
12588;DHT22;6359;51.450;7.346;2022-08-25T15:59:13;31.90;63.80
12588;DHT22;6359;51.450;7.346;2022-08-25T16:01:41;31.80;64.20
12588;DHT22;6359;51.450;7.346;2022-08-25T16:04:09;31.90;65.10
12588;DHT22;6359;51.450;7.346;2022-08-25T16:06:36;31.90;63.40
12588;DHT22;6359;51.450;7.346;2022-08-25T16:09:05;31.90;64.50
12588;DHT22;6359;51.450;7.346;2022-08-25T16:11:33;31.90;64.20
12588;DHT22;6359;51.450;7.346;2022-08-25T16:14:00;32.00;62.90